createdAt,value
2023-05-23T00:01:37.730Z,9.82
2023-05-23T00:04:08.995Z,9.98
2023-05-23T00:06:36.304Z,11.63
2023-05-23T00:09:02.953Z,10.77
2023-05-23T00:11:32.478Z,11.55
2023-05-23T00:14:01.145Z,11.20
2023-05-23T00:16:27.955Z,10.48
2023-05-23T00:18:57.633Z,10.85
2023-05-23T00:21:24.531Z,9.82
2023-05-23T00:23:51.088Z,10.93
2023-05-23T00:26:17.780Z,10.50
2023-05-23T00:28:46.141Z,10.57
2023-05-23T00:31:12.927Z,9.27
2023-05-23T00:33:39.520Z,10.00
2023-05-23T00:36:06.184Z,10.02
2023-05-23T00:38:33.072Z,8.68
2023-05-23T00:40:59.554Z,9.30
2023-05-23T00:43:26.255Z,9.48
2023-05-23T00:45:52.904Z,9.75
2023-05-23T00:48:19.740Z,10.35
2023-05-23T00:50:46.747Z,8.40
2023-05-23T00:53:13.649Z,6.97
2023-05-23T00:55:40.524Z,8.35
2023-05-23T00:58:07.902Z,8.73
2023-05-23T01:00:35.852Z,7.70
2023-05-23T01:03:05.113Z,6.28
2023-05-23T01:05:31.864Z,6.47
2023-05-23T01:07:58.374Z,6.93
2023-05-23T01:10:29.996Z,6.45
2023-05-23T01:13:08.511Z,6.82
2023-05-23T01:15:35.022Z,6.70
2023-05-23T01:18:08.609Z,6.50
2023-05-23T01:20:37.890Z,7.65
2023-05-23T01:23:21.278Z,7.03
2023-05-23T01:25:53.772Z,6.82
2023-05-23T01:28:22.026Z,6.85
2023-05-23T01:30:51.917Z,6.57
2023-05-23T01:33:20.637Z,7.10
2023-05-23T01:35:47.316Z,7.43
2023-05-23T01:38:14.736Z,6.57
2023-05-23T01:40:41.294Z,6.85
2023-05-23T01:43:09.694Z,8.20
2023-05-23T01:45:36.482Z,6.35
2023-05-23T01:48:03.861Z,6.60
2023-05-23T01:50:31.375Z,6.25
2023-05-23T01:52:58.180Z,6.43
2023-05-23T01:55:26.418Z,6.35
2023-05-23T01:57:57.658Z,6.32
2023-05-23T02:00:24.371Z,7.67
2023-05-23T02:02:51.706Z,7.07
2023-05-23T02:05:18.510Z,7.25
2023-05-23T02:07:45.491Z,6.43
2023-05-23T02:10:11.996Z,6.32
2023-05-23T02:12:38.487Z,6.35
2023-05-23T02:15:05.514Z,6.15
2023-05-23T02:17:32.251Z,6.30
2023-05-23T02:19:59.519Z,6.70
2023-05-23T02:22:26.359Z,6.65
2023-05-23T02:24:52.934Z,6.60
2023-05-23T02:27:19.629Z,6.63
2023-05-23T02:29:46.254Z,7.95
2023-05-23T02:32:12.796Z,6.93
2023-05-23T02:34:40.340Z,7.05
2023-05-23T02:37:07.145Z,6.45
2023-05-23T02:39:36.112Z,6.30
2023-05-23T02:42:05.091Z,7.55
2023-05-23T02:44:32.331Z,6.75
2023-05-23T02:46:58.794Z,7.35
2023-05-23T02:49:25.698Z,5.28
2023-05-23T02:51:52.452Z,7.50
2023-05-23T02:54:18.963Z,8.02
2023-05-23T02:56:46.189Z,6.32
2023-05-23T02:59:12.791Z,6.78
2023-05-23T03:01:39.356Z,6.47
2023-05-23T03:04:06.085Z,6.55
2023-05-23T03:06:34.278Z,6.68
2023-05-23T03:09:01.368Z,7.32
2023-05-23T03:11:29.846Z,7.25
2023-05-23T03:13:56.479Z,8.05
2023-05-23T03:16:25.956Z,7.38
2023-05-23T03:18:52.561Z,8.07
2023-05-23T03:21:19.246Z,8.07
2023-05-23T03:23:45.751Z,7.32
2023-05-23T03:26:12.218Z,7.45
2023-05-23T03:28:38.976Z,8.05
2023-05-23T03:31:05.967Z,8.45
2023-05-23T03:33:38.239Z,9.02
2023-05-23T03:36:06.726Z,8.23
2023-05-23T03:38:33.311Z,9.05
2023-05-23T03:41:00.035Z,8.60
2023-05-23T03:43:26.674Z,8.65
2023-05-23T03:45:53.333Z,9.15
2023-05-23T03:48:19.972Z,9.40
2023-05-23T03:50:47.348Z,9.05
2023-05-23T03:53:13.866Z,8.88
2023-05-23T03:55:40.697Z,10.32
2023-05-23T03:58:08.148Z,8.70
2023-05-23T04:00:34.682Z,9.40
2023-05-23T04:03:15.671Z,8.10
2023-05-23T04:05:42.732Z,8.52
2023-05-23T04:08:10.088Z,9.55
2023-05-23T04:10:36.658Z,8.70
2023-05-23T04:13:03.582Z,7.90
2023-05-23T04:15:30.531Z,7.82
2023-05-23T04:18:10.027Z,8.98
2023-05-23T04:20:37.638Z,7.97
2023-05-23T04:23:04.975Z,8.23
2023-05-23T04:25:34.691Z,7.78
2023-05-23T04:28:21.905Z,5.88
2023-05-23T04:30:49.553Z,7.55
2023-05-23T04:33:19.841Z,5.63
2023-05-23T04:35:46.369Z,6.53
2023-05-23T04:38:13.659Z,6.15
2023-05-23T04:40:40.493Z,6.28
2023-05-23T04:43:29.996Z,5.60
2023-05-23T04:46:04.278Z,5.32
2023-05-23T04:48:36.584Z,4.68
2023-05-23T04:51:08.000Z,4.57
2023-05-23T04:53:41.023Z,4.57
2023-05-23T04:56:10.230Z,4.22
2023-05-23T04:58:40.647Z,6.10
2023-05-23T05:01:09.895Z,4.65
2023-05-23T05:03:36.645Z,4.28
2023-05-23T05:06:03.637Z,4.85
2023-05-23T05:08:30.150Z,4.75
2023-05-23T05:10:57.539Z,5.10
2023-05-23T05:13:24.644Z,5.30
2023-05-23T05:15:54.469Z,5.25
2023-05-23T05:18:22.139Z,5.55
2023-05-23T05:20:49.366Z,4.63
2023-05-23T05:23:16.248Z,5.82
2023-05-23T05:25:43.011Z,5.75
2023-05-23T05:28:09.633Z,5.28
2023-05-23T05:30:41.317Z,4.85
2023-05-23T05:33:08.286Z,4.22
2023-05-23T05:35:35.412Z,5.15
2023-05-23T05:38:04.827Z,4.50
2023-05-23T05:40:34.749Z,5.25
2023-05-23T05:43:01.620Z,5.07
2023-05-23T05:45:28.337Z,4.47
2023-05-23T05:47:54.964Z,5.82
2023-05-23T05:50:23.518Z,6.53
2023-05-23T05:52:50.388Z,6.18
2023-05-23T05:55:17.171Z,5.88
2023-05-23T05:57:47.319Z,5.63
2023-05-23T06:00:15.660Z,5.85
2023-05-23T06:02:57.773Z,5.85
2023-05-23T06:05:40.063Z,5.30
2023-05-23T06:08:06.880Z,6.35
2023-05-23T06:10:33.761Z,6.32
2023-05-23T06:13:00.252Z,5.93
2023-05-23T06:15:28.093Z,5.95
2023-05-23T06:17:54.578Z,5.55
2023-05-23T06:20:21.775Z,5.10
2023-05-23T06:22:48.413Z,5.97
2023-05-23T06:25:15.167Z,5.97
2023-05-23T06:27:41.705Z,5.60
2023-05-23T06:30:08.526Z,6.20
2023-05-23T06:32:35.020Z,7.35
2023-05-23T06:35:01.698Z,6.82
2023-05-23T06:37:31.278Z,5.78
2023-05-23T06:39:57.759Z,6.10
2023-05-23T06:42:24.248Z,6.10
2023-05-23T06:45:17.405Z,6.25
2023-05-23T06:47:45.648Z,5.47
2023-05-23T06:50:12.583Z,5.75
2023-05-23T06:52:39.514Z,5.25
2023-05-23T06:55:06.430Z,4.47
2023-05-23T06:57:33.172Z,5.45
2023-05-23T06:59:59.925Z,4.50
2023-05-23T07:02:26.796Z,4.10
2023-05-23T07:04:54.399Z,4.78
2023-05-23T07:07:41.108Z,4.75
2023-05-23T07:10:08.058Z,5.38
2023-05-23T07:12:35.073Z,3.55
2023-05-23T07:15:01.774Z,3.95
2023-05-23T07:17:32.738Z,3.42
2023-05-23T07:19:59.452Z,3.80
2023-05-23T07:22:26.916Z,3.65
2023-05-23T07:24:53.785Z,2.90
2023-05-23T07:27:24.091Z,3.35
2023-05-23T07:29:59.450Z,3.05
2023-05-23T07:32:26.867Z,4.13
2023-05-23T07:34:54.869Z,4.38
2023-05-23T07:37:21.754Z,3.15
2023-05-23T07:39:48.625Z,3.42
2023-05-23T07:42:15.267Z,3.10
2023-05-23T07:44:41.924Z,3.60
2023-05-23T07:47:09.258Z,3.85
2023-05-23T07:49:35.885Z,3.20
2023-05-23T07:52:04.118Z,3.80
2023-05-23T07:54:32.836Z,3.70
2023-05-23T07:57:00.792Z,3.33
2023-05-23T07:59:27.975Z,4.30
2023-05-23T08:01:54.710Z,2.58
2023-05-23T08:04:23.006Z,3.55
2023-05-23T08:07:04.833Z,3.47
2023-05-23T08:09:44.832Z,3.42
2023-05-23T08:12:14.688Z,4.07
2023-05-23T08:14:50.686Z,3.67
2023-05-23T08:17:29.323Z,3.83
2023-05-23T08:19:57.117Z,2.97
2023-05-23T08:22:23.877Z,3.92
2023-05-23T08:24:50.567Z,3.67
2023-05-23T08:27:17.851Z,6.07
2023-05-23T08:29:46.969Z,3.45
2023-05-23T08:32:14.215Z,3.67
2023-05-23T08:34:41.868Z,3.78
2023-05-23T08:37:08.472Z,3.40
2023-05-23T08:39:36.394Z,3.55
2023-05-23T08:42:23.415Z,4.07
2023-05-23T08:44:51.529Z,4.13
2023-05-23T08:47:19.830Z,3.85
2023-05-23T08:49:58.916Z,3.72
2023-05-23T08:52:27.693Z,4.38
2023-05-23T08:54:56.762Z,3.78
2023-05-23T08:57:24.087Z,3.63
2023-05-23T08:59:56.249Z,3.80
2023-05-23T09:02:23.596Z,3.63
2023-05-23T09:04:53.534Z,3.58
2023-05-23T09:07:23.199Z,5.32
2023-05-23T09:09:51.445Z,3.40
2023-05-23T09:12:18.205Z,3.70
2023-05-23T09:14:47.226Z,4.07
2023-05-23T09:17:20.438Z,3.13
2023-05-23T09:19:47.333Z,4.15
2023-05-23T09:22:27.431Z,3.88
2023-05-23T09:25:05.101Z,4.45
2023-05-23T09:27:32.264Z,3.55
2023-05-23T09:30:04.873Z,4.43
2023-05-23T09:32:31.357Z,4.15
2023-05-23T09:34:59.233Z,3.83
2023-05-23T09:37:30.081Z,3.83
2023-05-23T09:39:57.145Z,3.80
2023-05-23T09:42:24.113Z,3.85
2023-05-23T09:44:50.936Z,3.75
2023-05-23T09:47:17.811Z,3.17
2023-05-23T09:49:44.997Z,3.30
2023-05-23T09:52:12.463Z,3.45
2023-05-23T09:54:39.239Z,3.35
2023-05-23T09:57:09.731Z,3.00
2023-05-23T09:59:38.809Z,3.13
2023-05-23T10:02:06.912Z,4.13
2023-05-23T10:04:34.779Z,3.65
2023-05-23T10:07:04.859Z,3.20
2023-05-23T10:09:33.635Z,3.63
2023-05-23T10:12:00.129Z,3.13
2023-05-23T10:14:28.167Z,2.88
2023-05-23T10:17:00.846Z,2.83
2023-05-23T10:19:42.882Z,3.00
2023-05-23T10:24:36.538Z,3.75
2023-05-23T10:27:05.950Z,3.85
2023-05-23T10:29:33.942Z,3.45
2023-05-23T10:32:02.821Z,2.92
2023-05-23T10:34:32.352Z,3.47
2023-05-23T10:37:02.059Z,3.42
2023-05-23T10:39:33.682Z,3.30
2023-05-23T10:42:06.980Z,3.20
2023-05-23T10:44:33.576Z,3.28
2023-05-23T10:47:04.181Z,4.97
2023-05-23T10:49:40.847Z,3.05
2023-05-23T10:52:08.059Z,3.50
2023-05-23T10:54:35.479Z,3.00
2023-05-23T10:57:05.832Z,3.85
2023-05-23T10:59:32.801Z,3.45
2023-05-23T11:02:00.335Z,3.03
2023-05-23T11:04:30.614Z,2.83
2023-05-23T11:06:57.718Z,2.80
2023-05-23T11:09:24.499Z,3.28
2023-05-23T11:11:54.177Z,3.10
2023-05-23T11:14:21.429Z,3.28
2023-05-23T11:16:49.156Z,2.72
2023-05-23T11:19:20.038Z,3.33
2023-05-23T11:21:50.725Z,2.78
2023-05-23T11:24:20.252Z,3.00
2023-05-23T11:27:00.507Z,3.78
2023-05-23T11:29:28.767Z,2.78
2023-05-23T11:31:56.200Z,2.97
2023-05-23T11:34:23.445Z,3.08
2023-05-23T11:36:53.206Z,3.20
2023-05-23T11:39:20.754Z,3.38
2023-05-23T11:41:51.068Z,2.83
2023-05-23T11:44:17.618Z,3.15
2023-05-23T11:46:58.789Z,3.00
2023-05-23T11:49:25.272Z,3.57
2023-05-23T11:51:51.855Z,2.30
2023-05-23T11:54:22.484Z,2.63
2023-05-23T11:56:49.004Z,3.38
2023-05-23T11:59:15.599Z,2.97
2023-05-23T12:01:43.308Z,3.15
2023-05-23T12:04:11.939Z,2.67
2023-05-23T12:06:41.682Z,2.60
2023-05-23T12:09:10.526Z,3.42
2023-05-23T12:11:37.143Z,2.35
2023-05-23T12:14:06.724Z,2.75
2023-05-23T12:16:33.856Z,3.03
2023-05-23T12:19:01.255Z,2.10
2023-05-23T12:21:40.421Z,2.33
2023-05-23T12:24:17.523Z,3.15
2023-05-23T12:26:47.869Z,2.75
2023-05-23T12:29:14.810Z,3.22
2023-05-23T12:31:41.496Z,2.35
2023-05-23T12:34:08.108Z,2.15
2023-05-23T12:36:39.582Z,2.05
2023-05-23T12:39:11.898Z,2.35
2023-05-23T12:41:38.422Z,2.35
2023-05-23T12:44:05.057Z,1.92
2023-05-23T12:46:34.663Z,2.55
2023-05-23T12:49:01.289Z,2.50
2023-05-23T12:51:27.890Z,2.88
2023-05-23T12:53:54.908Z,2.47
2023-05-23T12:56:22.469Z,3.40
2023-05-23T12:58:49.122Z,3.22
2023-05-23T13:01:15.760Z,2.70
2023-05-23T13:03:42.359Z,2.97
2023-05-23T13:06:09.073Z,2.83
2023-05-23T13:08:35.800Z,3.28
2023-05-23T13:11:02.255Z,2.88
2023-05-23T13:13:28.918Z,2.58
2023-05-23T13:15:56.218Z,3.40
2023-05-23T13:18:22.735Z,2.33
2023-05-23T13:20:49.298Z,2.63
2023-05-23T13:23:16.126Z,2.13
2023-05-23T13:25:43.102Z,2.20
2023-05-23T13:28:10.152Z,3.28
2023-05-23T13:30:37.017Z,3.03
2023-05-23T13:33:03.708Z,3.17
2023-05-23T13:35:30.188Z,3.50
2023-05-23T13:37:56.693Z,2.67
2023-05-23T13:40:23.365Z,3.17
2023-05-23T13:42:53.420Z,3.22
2023-05-23T13:45:20.412Z,2.50
2023-05-23T13:47:47.352Z,3.03
2023-05-23T13:50:14.054Z,2.70
2023-05-23T13:52:44.120Z,3.00
2023-05-23T13:55:12.564Z,2.60
2023-05-23T13:57:39.092Z,2.10
2023-05-23T14:00:06.092Z,2.05
2023-05-23T14:02:34.426Z,2.88
2023-05-23T14:05:01.060Z,1.98
2023-05-23T14:07:27.678Z,2.97
2023-05-23T14:09:54.136Z,3.13
2023-05-23T14:12:20.808Z,2.72
2023-05-23T14:14:47.278Z,2.45
2023-05-23T14:17:16.902Z,1.70
2023-05-23T14:19:43.728Z,2.40
2023-05-23T14:22:10.792Z,2.10
2023-05-23T14:24:37.549Z,2.85
2023-05-23T14:27:04.670Z,2.63
2023-05-23T14:29:31.765Z,2.58
2023-05-23T14:32:00.750Z,3.00
2023-05-23T14:34:27.470Z,2.75
2023-05-23T14:36:54.103Z,2.25
2023-05-23T14:39:20.669Z,2.40
2023-05-23T14:41:47.265Z,2.17
2023-05-23T14:44:13.743Z,2.95
2023-05-23T14:46:42.208Z,2.38
2023-05-23T14:49:08.701Z,2.70
2023-05-23T14:51:48.581Z,2.40
2023-05-23T14:54:17.097Z,2.78
2023-05-23T14:56:43.643Z,2.78
2023-05-23T14:59:10.354Z,3.10
2023-05-23T15:01:39.495Z,2.83
2023-05-23T15:04:09.303Z,3.47
2023-05-23T15:06:37.266Z,2.28
2023-05-23T15:09:04.329Z,2.63
2023-05-23T15:11:32.123Z,2.70
2023-05-23T15:13:59.800Z,3.35
2023-05-23T15:16:26.617Z,2.10
2023-05-23T15:18:53.386Z,1.85
2023-05-23T15:21:19.853Z,2.72
2023-05-23T15:23:46.602Z,1.95
2023-05-23T15:26:13.240Z,2.58
2023-05-23T15:28:39.878Z,1.95
2023-05-23T15:31:06.667Z,2.03
2023-05-23T15:33:33.345Z,2.13
2023-05-23T15:36:00.020Z,2.30
2023-05-23T15:38:26.526Z,3.00
2023-05-23T15:40:54.702Z,2.55
2023-05-23T15:43:21.225Z,2.08
2023-05-23T15:45:49.794Z,2.58
2023-05-23T15:48:16.619Z,2.53
2023-05-23T15:50:44.091Z,2.10
2023-05-23T15:53:10.927Z,2.47
2023-05-23T15:55:39.817Z,2.17
2023-05-23T15:58:09.654Z,2.83
2023-05-23T16:00:36.305Z,2.50
2023-05-23T16:03:05.138Z,2.92
2023-05-23T16:05:31.700Z,2.75
2023-05-23T16:07:58.096Z,2.42
2023-05-23T16:10:25.440Z,2.58
2023-05-23T16:12:52.005Z,2.38
2023-05-23T16:15:19.026Z,2.85
2023-05-23T16:17:45.856Z,3.17
2023-05-23T16:20:12.843Z,2.58
2023-05-23T16:22:39.737Z,2.50
2023-05-23T16:25:08.277Z,3.25
2023-05-23T16:27:35.084Z,4.25
2023-05-23T16:30:01.797Z,5.45
2023-05-23T16:32:28.965Z,3.25
2023-05-23T16:34:55.803Z,3.30
2023-05-23T16:37:22.313Z,2.85
2023-05-23T16:39:48.804Z,2.88
2023-05-23T16:42:15.527Z,2.17
2023-05-23T16:44:42.271Z,3.50
2023-05-23T16:47:09.040Z,2.70
2023-05-23T16:49:35.559Z,2.67
2023-05-23T16:52:03.008Z,2.65
2023-05-23T16:54:29.678Z,2.25
2023-05-23T16:56:57.642Z,2.05
2023-05-23T16:59:24.159Z,2.72
2023-05-23T17:01:51.027Z,2.42
2023-05-23T17:04:20.266Z,3.13
2023-05-23T17:06:47.073Z,2.88
2023-05-23T17:09:13.712Z,2.88
2023-05-23T17:11:40.138Z,2.60
2023-05-23T17:14:06.783Z,2.65
2023-05-23T17:16:33.701Z,2.78
2023-05-23T17:19:00.861Z,2.97
2023-05-23T17:21:27.389Z,2.63
2023-05-23T17:23:53.903Z,2.80
2023-05-23T17:26:20.567Z,2.90
2023-05-23T17:28:47.349Z,2.72
2023-05-23T17:31:14.130Z,2.33
2023-05-23T17:33:40.827Z,2.50
2023-05-23T17:36:07.758Z,2.40
2023-05-23T17:38:34.235Z,2.80
2023-05-23T17:41:00.891Z,2.10
2023-05-23T17:43:27.483Z,3.28
2023-05-23T17:45:54.915Z,2.80
2023-05-23T17:48:31.419Z,2.65
2023-05-23T17:51:09.131Z,2.45
2023-05-23T17:53:40.154Z,2.83
2023-05-23T17:56:10.016Z,3.07
2023-05-23T17:58:37.582Z,3.63
2023-05-23T18:01:04.900Z,3.15
2023-05-23T18:03:31.556Z,1.88
2023-05-23T18:05:57.997Z,2.90
2023-05-23T18:08:24.586Z,3.17
2023-05-23T18:10:51.406Z,2.58
2023-05-23T18:13:18.093Z,3.42
2023-05-23T18:15:44.563Z,1.83
2023-05-23T18:18:11.546Z,3.05
2023-05-23T18:20:38.123Z,2.58
2023-05-23T18:23:04.727Z,2.20
2023-05-23T18:25:31.201Z,2.03
2023-05-23T18:27:58.450Z,1.92
2023-05-23T18:30:25.377Z,2.83
2023-05-23T18:32:52.397Z,2.10
2023-05-23T18:35:19.254Z,2.20
2023-05-23T18:37:46.526Z,2.10
2023-05-23T18:40:13.694Z,3.00
2023-05-23T18:42:40.546Z,2.42
2023-05-23T18:45:07.934Z,1.90
2023-05-23T18:47:35.214Z,3.05
2023-05-23T18:50:01.871Z,2.30
2023-05-23T18:52:28.333Z,2.03
2023-05-23T18:54:54.953Z,2.55
2023-05-23T18:57:22.697Z,2.20
2023-05-23T18:59:49.574Z,2.13
2023-05-23T19:02:16.283Z,2.80
2023-05-23T19:04:42.886Z,2.45
2023-05-23T19:07:09.413Z,3.08
2023-05-23T19:09:36.399Z,3.58
2023-05-23T19:12:03.223Z,2.80
2023-05-23T19:14:29.736Z,2.67
2023-05-23T19:16:56.285Z,2.55
2023-05-23T19:19:23.123Z,4.05
2023-05-23T19:21:49.791Z,2.28
2023-05-23T19:24:16.919Z,2.65
2023-05-23T19:26:43.484Z,2.40
2023-05-23T19:29:10.573Z,2.95
2023-05-23T19:31:39.346Z,2.38
2023-05-23T19:34:06.745Z,2.53
2023-05-23T19:36:33.313Z,2.42
2023-05-23T19:39:00.507Z,2.00
2023-05-23T19:41:27.246Z,2.85
2023-05-23T19:43:53.684Z,2.60
2023-05-23T19:46:20.334Z,2.15
2023-05-23T19:48:47.041Z,2.00
2023-05-23T19:51:14.243Z,2.17
2023-05-23T19:53:41.439Z,2.78
2023-05-23T19:56:08.222Z,2.97
2023-05-23T19:58:36.262Z,2.42
2023-05-23T20:01:02.932Z,2.78
2023-05-23T20:03:32.192Z,2.25
2023-05-23T20:05:59.143Z,2.72
2023-05-23T20:08:26.086Z,1.80
2023-05-23T20:10:52.602Z,2.65
2023-05-23T20:13:19.236Z,3.30
2023-05-23T20:15:46.037Z,2.83
2023-05-23T20:18:12.968Z,2.60
2023-05-23T20:20:39.770Z,2.20
2023-05-23T20:23:07.249Z,2.70
2023-05-23T20:25:33.897Z,4.85
2023-05-23T20:28:00.644Z,3.15
2023-05-23T20:30:27.770Z,2.33
2023-05-23T20:32:54.560Z,2.65
2023-05-23T20:35:21.529Z,2.10
2023-05-23T20:37:48.376Z,2.47
2023-05-23T20:40:14.825Z,2.85
2023-05-23T20:42:41.286Z,2.72
2023-05-23T20:45:08.633Z,2.42
2023-05-23T20:47:37.585Z,3.15
2023-05-23T20:50:04.624Z,2.05
2023-05-23T20:52:31.863Z,3.50
2023-05-23T20:54:58.542Z,2.83
2023-05-23T20:57:25.072Z,4.80
2023-05-23T20:59:52.591Z,3.72
2023-05-23T21:02:19.134Z,3.03
2023-05-23T21:04:45.937Z,1.98
2023-05-23T21:07:13.508Z,2.30
2023-05-23T21:09:40.160Z,2.28
2023-05-23T21:12:09.783Z,2.65
2023-05-23T21:14:36.345Z,2.20
2023-05-23T21:17:04.483Z,2.53
2023-05-23T21:19:31.322Z,2.28
2023-05-23T21:21:57.854Z,2.28
2023-05-23T21:24:25.283Z,2.20
2023-05-23T21:26:51.853Z,2.92
2023-05-23T21:29:18.334Z,2.35
2023-05-23T21:31:44.809Z,3.60
2023-05-23T21:34:23.317Z,2.90
2023-05-23T21:36:51.502Z,2.90
2023-05-23T21:39:18.151Z,2.40
2023-05-23T21:41:44.766Z,2.13
2023-05-23T21:44:13.469Z,2.92
2023-05-23T21:46:40.220Z,2.45
2023-05-23T21:49:06.889Z,3.17
2023-05-23T21:51:33.561Z,3.22
2023-05-23T21:54:00.004Z,3.38
2023-05-23T21:56:27.948Z,2.60
2023-05-23T21:58:54.414Z,2.00
2023-05-23T22:01:21.162Z,2.00
2023-05-23T22:03:47.906Z,3.40
2023-05-23T22:06:14.601Z,2.70
2023-05-23T22:08:42.085Z,2.67
2023-05-23T22:11:10.387Z,2.83
2023-05-23T22:13:37.000Z,2.75
2023-05-23T22:16:05.228Z,2.63
2023-05-23T22:18:50.908Z,2.90
2023-05-23T22:21:18.348Z,3.13
2023-05-23T22:23:44.842Z,2.08
2023-05-23T22:26:12.577Z,2.35
2023-05-23T22:28:39.251Z,2.30
2023-05-23T22:31:05.844Z,2.42
2023-05-23T22:33:32.507Z,2.03
2023-05-23T22:35:59.051Z,2.95
2023-05-23T22:38:25.553Z,3.10
2023-05-23T22:40:52.074Z,2.78
2023-05-23T22:43:21.502Z,3.10
2023-05-23T22:45:50.147Z,3.13
2023-05-23T22:48:17.990Z,2.88
2023-05-23T22:50:44.773Z,2.35
2023-05-23T22:53:12.836Z,4.25
2023-05-23T22:55:39.748Z,2.58
2023-05-23T22:58:07.939Z,2.55
2023-05-23T23:00:35.187Z,2.42
2023-05-23T23:03:02.491Z,3.00
2023-05-23T23:05:29.491Z,2.22
2023-05-23T23:07:55.997Z,2.42
2023-05-23T23:10:22.454Z,2.40
2023-05-23T23:12:48.917Z,3.45
2023-05-23T23:15:15.507Z,2.97
2023-05-23T23:17:42.112Z,2.10
2023-05-23T23:20:08.955Z,2.67
2023-05-23T23:22:36.286Z,3.08
2023-05-23T23:25:10.386Z,4.07
2023-05-23T23:27:37.536Z,2.35
2023-05-23T23:30:04.844Z,2.63
2023-05-23T23:32:33.963Z,2.42
2023-05-23T23:35:00.892Z,2.95
2023-05-23T23:37:27.353Z,2.95
2023-05-23T23:39:53.799Z,2.17
2023-05-23T23:42:20.410Z,2.63
2023-05-23T23:44:46.860Z,2.72
2023-05-23T23:47:13.363Z,2.42
2023-05-23T23:49:39.890Z,2.88
2023-05-23T23:52:06.772Z,2.67
2023-05-23T23:54:33.188Z,2.88
2023-05-23T23:56:59.896Z,4.28
2023-05-23T23:59:26.874Z,3.65
